createdAt,value
2018-06-04T00:00:15.422Z,101133.16
2018-06-04T00:02:44.557Z,101130.97
2018-06-04T00:05:13.666Z,101134.14
2018-06-04T00:07:42.765Z,101135.48
2018-06-04T00:10:11.883Z,101131.83
2018-06-04T00:12:40.996Z,101131.95
2018-06-04T00:15:10.103Z,101130.97
2018-06-04T00:17:39.235Z,101128.66
2018-06-04T00:20:08.372Z,101123.03
2018-06-04T00:22:37.507Z,101124.73
2018-06-04T00:25:06.624Z,101123.14
2018-06-04T00:27:36.654Z,101129.02
2018-06-04T00:30:05.757Z,101138.23
2018-06-04T00:32:34.911Z,101141.67
2018-06-04T00:35:04.355Z,101143.72
2018-06-04T00:37:33.484Z,101133.61
2018-06-04T00:40:02.603Z,101132.39
2018-06-04T00:42:31.987Z,101133.84
2018-06-04T00:45:02.565Z,101125.31
2018-06-04T00:47:32.008Z,101131.06
2018-06-04T00:50:01.204Z,101123.27
2018-06-04T00:52:30.337Z,101120.30
2018-06-04T00:54:59.453Z,101120.80
2018-06-04T00:57:28.581Z,101122.97
2018-06-04T00:59:59.877Z,101121.28
2018-06-04T01:02:29.018Z,101116.04
2018-06-04T01:04:58.121Z,101114.08
2018-06-04T01:07:27.205Z,101119.31
2018-06-04T01:09:56.329Z,101104.95
2018-06-04T01:12:25.560Z,101106.77
2018-06-04T01:14:54.654Z,101099.33
2018-06-04T01:17:23.827Z,101102.13
2018-06-04T01:19:52.944Z,101108.20
2018-06-04T01:22:22.123Z,101110.04
2018-06-04T01:24:51.278Z,101109.77
2018-06-04T01:27:20.755Z,101107.60
2018-06-04T01:29:49.921Z,101104.19
2018-06-04T01:32:19.115Z,101101.03
2018-06-04T01:34:48.238Z,101101.16
2018-06-04T01:37:17.378Z,101097.73
2018-06-04T01:39:46.514Z,101100.88
2018-06-04T01:42:15.689Z,101095.65
2018-06-04T01:44:45.100Z,101098.09
2018-06-04T01:47:14.233Z,101090.17
2018-06-04T01:49:43.338Z,101093.92
2018-06-04T01:52:12.444Z,101082.23
2018-06-04T01:54:41.546Z,101083.70
2018-06-04T01:57:10.635Z,101074.45
2018-06-04T01:59:39.756Z,101079.33
2018-06-04T02:02:08.890Z,101077.36
2018-06-04T02:04:38.014Z,101078.22
2018-06-04T02:07:07.151Z,101080.86
2018-06-04T02:09:36.635Z,101075.52
2018-06-04T02:12:05.835Z,101076.61
2018-06-04T02:14:34.915Z,101075.62
2018-06-04T02:17:04.051Z,101069.92
2018-06-04T02:19:33.147Z,101073.06
2018-06-04T02:22:02.299Z,101076.09
2018-06-04T02:24:31.389Z,101068.31
2018-06-04T02:27:00.518Z,101073.53
2018-06-04T02:29:29.688Z,101071.92
2018-06-04T02:31:58.880Z,101066.93
2018-06-04T02:34:28.012Z,101062.52
2018-06-04T02:36:57.224Z,101061.19
2018-06-04T02:39:26.333Z,101060.05
2018-06-04T02:41:55.539Z,101052.53
2018-06-04T02:44:40.261Z,101054.34
2018-06-04T02:47:12.127Z,101052.27
2018-06-04T02:49:41.249Z,101057.72
2018-06-04T02:52:10.391Z,101053.83
2018-06-04T02:54:39.541Z,101053.47
2018-06-04T02:57:08.720Z,101053.20
2018-06-04T02:59:37.889Z,101058.55
2018-06-04T03:02:07.037Z,101067.06
2018-06-04T03:04:36.203Z,101064.12
2018-06-04T03:07:05.486Z,101060.73
2018-06-04T03:09:34.593Z,101050.87
2018-06-04T03:12:04.318Z,101052.32
2018-06-04T03:14:33.405Z,101047.84
2018-06-04T03:17:02.536Z,101046.03
2018-06-04T03:19:31.700Z,101055.50
2018-06-04T03:22:00.839Z,101048.08
2018-06-04T03:24:30.097Z,101050.87
2018-06-04T03:26:59.199Z,101046.27
2018-06-04T03:29:28.357Z,101045.30
2018-06-04T03:31:57.427Z,101042.62
2018-06-04T03:34:26.598Z,101047.02
2018-06-04T03:36:55.681Z,101046.52
2018-06-04T03:39:24.813Z,101046.52
2018-06-04T03:41:53.934Z,101048.72
2018-06-04T03:44:23.024Z,101050.05
2018-06-04T03:46:52.157Z,101047.37
2018-06-04T03:49:21.253Z,101044.70
2018-06-04T03:51:50.409Z,101038.02
2018-06-04T03:54:19.513Z,101038.50
2018-06-04T03:56:48.650Z,101034.77
2018-06-04T03:59:17.780Z,101035.35
2018-06-04T04:01:46.922Z,101037.20
2018-06-04T04:04:16.072Z,101030.88
2018-06-04T04:06:45.184Z,101035.63
2018-06-04T04:09:14.424Z,101043.45
2018-06-04T04:11:43.533Z,101040.00
2018-06-04T04:14:12.675Z,101042.11
2018-06-04T04:16:41.803Z,101041.14
2018-06-04T04:19:10.933Z,101048.56
2018-06-04T04:21:40.072Z,101048.92
2018-06-04T04:24:09.199Z,101046.01
2018-06-04T04:26:38.391Z,101040.00
2018-06-04T04:29:07.538Z,101047.03
2018-06-04T04:31:36.657Z,101050.21
2018-06-04T04:34:05.843Z,101042.78
2018-06-04T04:36:34.994Z,101042.15
2018-06-04T04:39:06.044Z,101042.03
2018-06-04T04:41:35.147Z,101039.83
2018-06-04T04:44:04.511Z,101042.78
2018-06-04T04:46:33.621Z,101039.12
2018-06-04T04:49:02.710Z,101034.41
2018-06-04T04:51:31.911Z,101034.45
2018-06-04T04:54:01.024Z,101041.65
2018-06-04T04:56:30.180Z,101039.84
2018-06-04T04:58:59.322Z,101039.02
2018-06-04T05:01:29.382Z,101040.59
2018-06-04T05:03:59.017Z,101043.30
2018-06-04T05:06:28.173Z,101042.47
2018-06-04T05:08:57.323Z,101036.14
2018-06-04T05:11:26.724Z,101044.91
2018-06-04T05:13:55.876Z,101045.03
2018-06-04T05:16:24.995Z,101039.83
2018-06-04T05:18:54.143Z,101038.25
2018-06-04T05:21:23.256Z,101043.24
2018-06-04T05:23:52.393Z,101041.42
2018-06-04T05:26:21.523Z,101039.61
2018-06-04T05:28:50.633Z,101042.91
2018-06-04T05:31:20.182Z,101037.19
2018-06-04T05:33:49.353Z,101042.30
2018-06-04T05:36:18.501Z,101039.86
2018-06-04T05:38:47.627Z,101039.49
2018-06-04T05:41:16.837Z,101044.30
2018-06-04T05:43:46.051Z,101043.69
2018-06-04T05:46:15.229Z,101050.98
2018-06-04T05:48:44.375Z,101044.41
2018-06-04T05:51:13.565Z,101046.24
2018-06-04T05:53:42.724Z,101047.34
2018-06-04T05:56:11.923Z,101048.18
2018-06-04T05:58:41.031Z,101046.22
2018-06-04T06:01:10.159Z,101040.83
2018-06-04T06:03:39.307Z,101032.77
2018-06-04T06:06:08.463Z,101031.41
2018-06-04T06:08:37.594Z,101026.30
2018-06-04T06:11:06.841Z,101026.30
2018-06-04T06:13:35.995Z,101021.77
2018-06-04T06:16:05.269Z,101018.45
2018-06-04T06:18:34.473Z,101022.69
2018-06-04T06:21:03.621Z,101025.71
2018-06-04T06:23:32.745Z,101023.37
2018-06-04T06:26:01.947Z,101021.03
2018-06-04T06:28:31.128Z,101019.50
2018-06-04T06:31:00.281Z,101012.48
2018-06-04T06:33:29.430Z,101022.67
2018-06-04T06:35:58.577Z,101017.69
2018-06-04T06:38:27.693Z,101015.70
2018-06-04T06:40:56.864Z,101017.99
2018-06-04T06:43:26.008Z,101015.63
2018-06-04T06:45:55.153Z,101010.52
2018-06-04T06:48:24.299Z,101014.31
2018-06-04T06:50:53.408Z,101016.04
2018-06-04T06:53:22.589Z,101004.50
2018-06-04T06:55:51.710Z,100999.78
2018-06-04T06:58:20.902Z,101001.89
2018-06-04T07:00:50.159Z,101001.98
2018-06-04T07:03:19.320Z,100999.99
2018-06-04T07:05:48.584Z,101007.05
2018-06-04T07:08:17.706Z,101008.98
2018-06-04T07:10:46.871Z,101004.88
2018-06-04T07:13:16.052Z,101005.22
2018-06-04T07:15:45.209Z,101006.22
2018-06-04T07:18:14.353Z,101008.72
2018-06-04T07:20:43.479Z,101010.78
2018-06-04T07:23:12.585Z,101005.28
2018-06-04T07:25:41.775Z,101006.89
2018-06-04T07:28:10.922Z,101000.45
2018-06-04T07:30:40.044Z,101000.08
2018-06-04T07:33:09.235Z,101003.55
2018-06-04T07:35:38.413Z,101007.02
2018-06-04T07:38:07.554Z,101003.88
2018-06-04T07:40:36.681Z,101005.72
2018-06-04T07:43:06.003Z,101003.03
2018-06-04T07:45:35.118Z,101000.05
2018-06-04T07:48:04.541Z,101000.05
2018-06-04T07:50:33.663Z,100997.80
2018-06-04T07:53:03.230Z,101000.97
2018-06-04T07:55:32.327Z,100997.31
2018-06-04T07:58:01.516Z,100994.41
2018-06-04T08:00:31.703Z,100990.71
2018-06-04T08:03:00.854Z,100989.63
2018-06-04T08:05:30.008Z,100980.41
2018-06-04T08:07:59.718Z,100973.86
2018-06-04T08:10:28.859Z,100977.39
2018-06-04T08:12:57.991Z,100977.28
2018-06-04T08:15:27.125Z,100978.86
2018-06-04T08:17:56.403Z,100978.86
2018-06-04T08:20:25.539Z,100970.22
2018-06-04T08:22:54.664Z,100978.03
2018-06-04T08:25:24.498Z,100975.49
2018-06-04T08:27:53.649Z,100965.48
2018-06-04T08:30:22.821Z,100968.58
2018-06-04T08:32:51.958Z,100971.58
2018-06-04T08:35:21.155Z,100974.84
2018-06-04T08:37:50.262Z,100965.86
2018-06-04T08:40:19.464Z,100968.59
2018-06-04T08:42:48.717Z,100962.50
2018-06-04T08:45:17.879Z,100965.48
2018-06-04T08:47:47.925Z,100959.08
2018-06-04T08:50:17.052Z,100959.00
2018-06-04T08:52:47.157Z,100956.83
2018-06-04T08:55:16.241Z,100955.59
2018-06-04T08:57:45.397Z,100956.54
2018-06-04T09:00:14.537Z,100959.05
2018-06-04T09:02:44.766Z,100950.97
2018-06-04T09:05:13.947Z,100947.41
2018-06-04T09:07:43.034Z,100945.13
2018-06-04T09:10:12.171Z,100943.92
2018-06-04T09:12:41.300Z,100946.02
2018-06-04T09:15:10.454Z,100947.31
2018-06-04T09:17:39.564Z,100940.14
2018-06-04T09:20:08.730Z,100945.74
2018-06-04T09:22:37.937Z,100953.59
2018-06-04T09:25:07.053Z,100947.73
2018-06-04T09:27:36.200Z,100941.30
2018-06-04T09:30:05.447Z,100947.59
2018-06-04T09:32:34.557Z,100943.39
2018-06-04T09:35:03.813Z,100942.50
2018-06-04T09:37:32.974Z,100946.70
2018-06-04T09:40:02.178Z,100951.94
2018-06-04T09:42:31.467Z,100945.68
2018-06-04T09:45:00.591Z,100941.90
2018-06-04T09:47:29.804Z,100949.27
2018-06-04T09:49:58.928Z,100944.34
2018-06-04T09:52:28.006Z,100948.95
2018-06-04T09:54:57.113Z,100946.59
2018-06-04T09:57:26.285Z,100941.64
2018-06-04T09:59:55.507Z,100936.73
2018-06-04T10:02:24.801Z,100943.09
2018-06-04T10:04:53.961Z,100938.97
2018-06-04T10:07:23.101Z,100940.95
2018-06-04T10:09:52.242Z,100931.45
2018-06-04T10:12:21.356Z,100943.05
2018-06-04T10:14:50.550Z,100941.27
2018-06-04T10:17:19.732Z,100937.77
2018-06-04T10:19:48.902Z,100932.23
2018-06-04T10:22:17.977Z,100932.80
2018-06-04T10:24:47.185Z,100936.05
2018-06-04T10:27:16.274Z,100930.54
2018-06-04T10:29:45.444Z,100926.60
2018-06-04T10:32:14.575Z,100934.59
2018-06-04T10:34:43.695Z,100932.94
2018-06-04T10:37:12.827Z,100932.80
2018-06-04T10:39:41.930Z,100928.83
2018-06-04T10:42:11.093Z,100931.88
2018-06-04T10:44:40.181Z,100932.25
2018-06-04T10:47:09.367Z,100933.25
2018-06-04T10:49:38.464Z,100932.75
2018-06-04T10:52:07.600Z,100932.25
2018-06-04T10:54:36.753Z,100927.86
2018-06-04T10:57:05.896Z,100933.59
2018-06-04T10:59:35.061Z,100935.64
2018-06-04T11:02:04.211Z,100929.55
2018-06-04T11:04:33.307Z,100926.68
2018-06-04T11:07:02.501Z,100921.78
2018-06-04T11:09:33.921Z,100912.97
2018-06-04T11:12:03.058Z,100919.01
2018-06-04T11:14:32.202Z,100914.97
2018-06-04T11:17:01.296Z,100913.23
2018-06-04T11:19:30.392Z,100903.06
2018-06-04T11:21:59.536Z,100901.98
2018-06-04T11:24:28.632Z,100909.72
2018-06-04T11:26:57.881Z,100906.08
2018-06-04T11:29:26.939Z,100902.07
2018-06-04T11:31:56.126Z,100902.80
2018-06-04T11:34:25.305Z,100898.60
2018-06-04T11:36:54.401Z,100897.42
2018-06-04T11:39:24.045Z,100891.30
2018-06-04T11:41:53.177Z,100886.23
2018-06-04T11:44:22.347Z,100891.66
2018-06-04T11:46:51.441Z,100884.55
2018-06-04T11:49:20.667Z,100885.70
2018-06-04T11:51:49.878Z,100883.31
2018-06-04T11:54:18.971Z,100885.81
2018-06-04T11:56:48.168Z,100889.69
2018-06-04T11:59:17.242Z,100885.16
2018-06-04T12:01:46.389Z,100883.44
2018-06-04T12:04:15.516Z,100887.81
2018-06-04T12:06:44.651Z,100877.17
2018-06-04T12:09:13.839Z,100879.78
2018-06-04T12:11:42.937Z,100881.06
2018-06-04T12:14:13.065Z,100878.59
2018-06-04T12:16:42.177Z,100883.44
2018-06-04T12:19:11.314Z,100876.38
2018-06-04T12:21:40.413Z,100875.94
2018-06-04T12:24:09.562Z,100867.56
2018-06-04T12:26:38.654Z,100867.53
2018-06-04T12:29:07.760Z,100866.36
2018-06-04T12:31:36.902Z,100867.22
2018-06-04T12:34:06.002Z,100865.06
2018-06-04T12:36:35.117Z,100869.44
2018-06-04T12:39:06.155Z,100866.83
2018-06-04T12:41:35.281Z,100871.19
2018-06-04T12:44:04.413Z,100865.29
2018-06-04T12:46:33.527Z,100865.02
2018-06-04T12:49:02.622Z,100865.13
2018-06-04T12:51:31.835Z,100861.75
2018-06-04T12:54:00.969Z,100854.63
2018-06-04T12:56:31.411Z,100862.31
2018-06-04T12:59:01.646Z,100863.99
2018-06-04T13:01:30.730Z,100850.94
2018-06-04T13:03:59.868Z,100856.38
2018-06-04T13:06:29.009Z,100854.13
2018-06-04T13:08:58.140Z,100845.23
2018-06-04T13:11:27.291Z,100848.36
2018-06-04T13:13:56.383Z,100841.23
2018-06-04T13:16:25.517Z,100840.99
2018-06-04T13:18:54.660Z,100837.00
2018-06-04T13:21:23.746Z,100849.12
2018-06-04T13:23:52.854Z,100834.81
2018-06-04T13:26:21.925Z,100823.07
2018-06-04T13:28:51.101Z,100818.84
2018-06-04T13:31:20.177Z,100820.37
2018-06-04T13:33:49.341Z,100816.37
2018-06-04T13:36:18.467Z,100809.50
2018-06-04T13:38:47.621Z,100812.85
2018-06-04T13:41:16.797Z,100806.16
2018-06-04T13:43:45.962Z,100809.01
2018-06-04T13:46:15.153Z,100808.72
2018-06-04T13:48:44.320Z,100808.04
2018-06-04T13:51:13.478Z,100811.56
2018-06-04T13:53:42.676Z,100805.63
2018-06-04T13:56:11.864Z,100816.36
2018-06-04T13:58:41.014Z,100807.61
2018-06-04T14:01:10.203Z,100804.00
2018-06-04T14:03:39.413Z,100808.06
2018-06-04T14:06:08.461Z,100810.45
2018-06-04T14:08:37.639Z,100808.15
2018-06-04T14:11:06.824Z,100807.36
2018-06-04T14:13:35.935Z,100807.22
2018-06-04T14:16:05.221Z,100800.48
2018-06-04T14:18:34.428Z,100802.72
2018-06-04T14:21:04.571Z,100796.24
2018-06-04T14:23:33.667Z,100787.70
2018-06-04T14:26:03.204Z,100794.43
2018-06-04T14:28:32.319Z,100795.09
2018-06-04T14:31:01.464Z,100790.62
2018-06-04T14:33:30.575Z,100788.23
2018-06-04T14:35:59.851Z,100788.54
2018-06-04T14:38:29.096Z,100794.41
2018-06-04T14:40:58.207Z,100787.61
2018-06-04T14:43:27.347Z,100781.39
2018-06-04T14:45:56.478Z,100776.02
2018-06-04T14:48:25.640Z,100773.07
2018-06-04T14:50:54.769Z,100778.23
2018-06-04T14:53:23.993Z,100777.52
2018-06-04T14:55:53.112Z,100783.28
2018-06-04T14:58:22.259Z,100778.67
2018-06-04T15:00:51.397Z,100779.68
2018-06-04T15:03:20.513Z,100780.23
2018-06-04T15:05:49.649Z,100778.63
2018-06-04T15:08:18.841Z,100780.77
2018-06-04T15:10:47.952Z,100770.95
2018-06-04T15:13:17.083Z,100776.88
2018-06-04T15:15:46.263Z,100764.88
2018-06-04T15:18:15.406Z,100758.06
2018-06-04T15:20:44.884Z,100762.33
2018-06-04T15:23:14.042Z,100755.82
2018-06-04T15:25:43.120Z,100755.89
2018-06-04T15:28:12.270Z,100757.68
2018-06-04T15:30:41.444Z,100761.69
2018-06-04T15:33:10.668Z,100759.67
2018-06-04T15:35:39.827Z,100760.03
2018-06-04T15:38:09.375Z,100753.17
2018-06-04T15:40:38.527Z,100749.81
2018-06-04T15:43:07.648Z,100743.19
2018-06-04T15:45:36.829Z,100744.87
2018-06-04T15:48:06.048Z,100749.46
2018-06-04T15:50:35.182Z,100739.42
2018-06-04T15:53:04.363Z,100730.34
2018-06-04T15:55:33.674Z,100738.03
2018-06-04T15:58:02.856Z,100735.27
2018-06-04T16:00:32.036Z,100737.67
2018-06-04T16:03:01.209Z,100733.80
2018-06-04T16:05:30.346Z,100731.67
2018-06-04T16:07:59.583Z,100724.36
2018-06-04T16:10:28.740Z,100725.71
2018-06-04T16:12:57.937Z,100720.84
2018-06-04T16:15:27.180Z,100718.98
2018-06-04T16:17:56.306Z,100719.52
2018-06-04T16:20:25.929Z,100721.70
2018-06-04T16:22:55.286Z,100722.33
2018-06-04T16:25:24.426Z,100724.05
2018-06-04T16:27:53.636Z,100723.90
2018-06-04T16:30:22.817Z,100724.98
2018-06-04T16:32:52.018Z,100715.72
2018-06-04T16:35:21.216Z,100708.34
2018-06-04T16:37:50.359Z,100712.73
2018-06-04T16:40:19.507Z,100712.20
2018-06-04T16:42:48.726Z,100707.10
2018-06-04T16:45:17.982Z,100707.95
2018-06-04T16:47:47.132Z,100705.78
2018-06-04T16:50:16.428Z,100698.62
2018-06-04T16:52:45.529Z,100706.88
2018-06-04T16:55:14.659Z,100706.52
2018-06-04T16:57:43.752Z,100698.52
2018-06-04T17:00:12.935Z,100699.76
2018-06-04T17:02:42.067Z,100698.26
2018-06-04T17:05:11.329Z,100703.03
2018-06-04T17:07:40.469Z,100701.49
2018-06-04T17:10:09.593Z,100693.91
2018-06-04T17:12:38.767Z,100694.87
2018-06-04T17:15:07.935Z,100698.44
2018-06-04T17:17:37.066Z,100689.25
2018-06-04T17:20:06.271Z,100692.98
2018-06-04T17:22:35.516Z,100692.45
2018-06-04T17:25:04.717Z,100691.81
2018-06-04T17:27:33.862Z,100689.99
2018-06-04T17:30:03.000Z,100688.78
2018-06-04T17:32:32.126Z,100680.42
2018-06-04T17:35:01.435Z,100682.65
2018-06-04T17:37:30.645Z,100692.48
2018-06-04T17:39:59.737Z,100691.84
2018-06-04T17:42:28.874Z,100692.18
2018-06-04T17:44:58.367Z,100692.19
2018-06-04T17:47:27.457Z,100697.91
2018-06-04T17:49:56.711Z,100696.05
2018-06-04T17:52:25.813Z,100696.56
2018-06-04T17:54:54.986Z,100703.68
2018-06-04T17:57:24.125Z,100698.95
2018-06-04T17:59:53.247Z,100697.93
2018-06-04T18:02:22.525Z,100704.02
2018-06-04T18:04:51.705Z,100701.31
2018-06-04T18:07:21.306Z,100704.67
2018-06-04T18:09:50.426Z,100711.94
2018-06-04T18:12:19.646Z,100705.35
2018-06-04T18:14:48.890Z,100717.51
2018-06-04T18:17:17.989Z,100729.09
2018-06-04T18:19:47.239Z,100725.04
2018-06-04T18:22:16.474Z,100725.37
2018-06-04T18:24:45.677Z,100725.37
2018-06-04T18:27:14.820Z,100718.45
2018-06-04T18:29:44.029Z,100725.02
2018-06-04T18:32:13.158Z,100727.53
2018-06-04T18:34:42.249Z,100721.25
2018-06-04T18:37:11.385Z,100721.55
2018-06-04T18:39:40.555Z,100732.18
2018-06-04T18:42:10.269Z,100727.80
2018-06-04T18:44:39.631Z,100740.56
2018-06-04T18:47:08.797Z,100742.20
2018-06-04T18:49:37.967Z,100737.45
2018-06-04T18:52:07.167Z,100741.78
2018-06-04T18:54:36.318Z,100736.67
2018-06-04T18:57:05.754Z,100738.87
2018-06-04T18:59:34.952Z,100736.27
2018-06-04T19:02:04.064Z,100743.13
2018-06-04T19:04:33.232Z,100738.53
2018-06-04T19:07:02.398Z,100744.23
2018-06-04T19:09:31.661Z,100737.11
2018-06-04T19:12:03.539Z,100742.41
2018-06-04T19:14:32.781Z,100744.93
2018-06-04T19:17:01.899Z,100752.45
2018-06-04T19:19:31.025Z,100750.36
2018-06-04T19:22:00.465Z,100756.22
2018-06-04T19:24:29.580Z,100757.08
2018-06-04T19:26:58.830Z,100761.25
2018-06-04T19:29:27.965Z,100757.00
2018-06-04T19:31:57.106Z,100773.76
2018-06-04T19:34:26.231Z,100771.86
2018-06-04T19:36:55.371Z,100777.33
2018-06-04T19:39:24.452Z,100781.18
2018-06-04T19:41:53.606Z,100784.27
2018-06-04T19:44:22.788Z,100785.03
2018-06-04T19:46:51.966Z,100785.80
2018-06-04T19:49:21.146Z,100790.75
2018-06-04T19:51:50.306Z,100792.73
2018-06-04T19:54:19.398Z,100798.57
2018-06-04T19:56:48.548Z,100808.11
2018-06-04T19:59:17.656Z,100811.73
2018-06-04T20:01:47.668Z,100813.68
2018-06-04T20:04:16.809Z,100812.78
2018-06-04T20:06:45.968Z,100815.36
2018-06-04T20:09:27.123Z,100817.15
2018-06-04T20:11:59.224Z,100819.72
2018-06-04T20:14:28.409Z,100824.32
2018-06-04T20:16:57.520Z,100828.80
2018-06-04T20:19:26.692Z,100829.98
2018-06-04T20:21:56.410Z,100832.97
2018-06-04T20:24:25.576Z,100833.41
2018-06-04T20:26:54.683Z,100834.48
2018-06-04T20:29:23.822Z,100836.46
2018-06-04T20:31:52.985Z,100839.39
2018-06-04T20:34:22.098Z,100840.02
2018-06-04T20:36:51.225Z,100841.09
2018-06-04T20:39:20.354Z,100839.25
2018-06-04T20:41:49.550Z,100841.23
2018-06-04T20:44:18.721Z,100848.81
2018-06-04T20:46:47.883Z,100852.56
2018-06-04T20:49:16.982Z,100859.23
2018-06-04T20:51:46.101Z,100860.63
2018-06-04T20:54:15.268Z,100863.53
2018-06-04T20:56:44.418Z,100860.52
2018-06-04T20:59:13.527Z,100861.29
2018-06-04T21:01:44.326Z,100859.51
2018-06-04T21:04:13.429Z,100860.41
2018-06-04T21:06:42.519Z,100855.33
2018-06-04T21:09:11.655Z,100864.18
2018-06-04T21:11:40.803Z,100859.85
2018-06-04T21:14:10.001Z,100869.88
2018-06-04T21:16:39.103Z,100865.69
2018-06-04T21:19:08.262Z,100869.64
2018-06-04T21:21:37.444Z,100878.25
2018-06-04T21:24:06.726Z,100877.87
2018-06-04T21:26:35.855Z,100871.98
2018-06-04T21:29:05.046Z,100870.92
2018-06-04T21:31:34.184Z,100867.89
2018-06-04T21:34:03.734Z,100871.13
2018-06-04T21:36:32.855Z,100865.03
2018-06-04T21:39:02.030Z,100877.46
2018-06-04T21:41:31.832Z,100880.20
2018-06-04T21:44:02.051Z,100883.16
2018-06-04T21:46:31.168Z,100887.99
2018-06-04T21:49:00.385Z,100892.50
2018-06-04T21:51:29.739Z,100895.59
2018-06-04T21:53:59.559Z,100891.48
2018-06-04T21:56:29.827Z,100901.60
2018-06-04T21:58:58.992Z,100898.80
2018-06-04T22:01:29.265Z,100898.00
2018-06-04T22:03:58.435Z,100896.20
2018-06-04T22:06:28.303Z,100894.86
2018-06-04T22:08:57.864Z,100894.46
2018-06-04T22:11:27.066Z,100902.36
2018-06-04T22:13:56.319Z,100903.50
2018-06-04T22:16:25.515Z,100896.72
2018-06-04T22:18:54.733Z,100902.81
2018-06-04T22:21:24.325Z,100903.22
2018-06-04T22:23:53.551Z,100910.18
2018-06-04T22:26:22.808Z,100909.84
2018-06-04T22:28:52.005Z,100900.99
2018-06-04T22:31:21.152Z,100903.67
2018-06-04T22:33:50.897Z,100899.88
2018-06-04T22:36:20.013Z,100904.55
2018-06-04T22:38:49.151Z,100906.62
2018-06-04T22:41:18.326Z,100907.57
2018-06-04T22:43:47.450Z,100909.08
2018-06-04T22:46:16.648Z,100909.38
2018-06-04T22:48:45.772Z,100904.41
2018-06-04T22:51:15.721Z,100907.69
2018-06-04T22:53:44.822Z,100900.55
2018-06-04T22:56:13.991Z,100904.69
2018-06-04T22:58:43.126Z,100909.79
2018-06-04T23:01:12.283Z,100918.80
2018-06-04T23:03:41.465Z,100912.27
2018-06-04T23:06:10.592Z,100915.57
2018-06-04T23:08:40.521Z,100912.27
2018-06-04T23:11:10.156Z,100913.75
2018-06-04T23:13:39.287Z,100908.00
2018-06-04T23:16:08.463Z,100912.86
2018-06-04T23:18:37.622Z,100915.78
2018-06-04T23:21:07.639Z,100914.33
2018-06-04T23:23:36.748Z,100913.48
2018-06-04T23:26:06.255Z,100903.62
2018-06-04T23:28:35.405Z,100906.30
2018-06-04T23:31:04.641Z,100908.74
2018-06-04T23:33:33.831Z,100912.28
2018-06-04T23:36:02.985Z,100904.23
2018-06-04T23:38:32.600Z,100902.17
2018-06-04T23:41:01.774Z,100900.12
2018-06-04T23:43:30.875Z,100899.24
2018-06-04T23:46:00.048Z,100904.36
2018-06-04T23:48:29.175Z,100900.66
2018-06-04T23:50:58.351Z,100896.77
2018-06-04T23:53:27.486Z,100896.64
2018-06-04T23:55:56.654Z,100898.81
2018-06-04T23:58:25.753Z,100892.02
